sensor_id;sensor_type;location;lat;lon;timestamp;P1;durP1;ratioP1;P2;durP2;ratioP2
63218;SDS011;49320;52.512;13.448;2023-11-19T00:00:07;9.13;;;6.28;;
63218;SDS011;49320;52.512;13.448;2023-11-19T00:02:39;6.47;;;5.22;;
63218;SDS011;49320;52.512;13.448;2023-11-19T00:05:09;7.22;;;6.30;;
63218;SDS011;49320;52.512;13.448;2023-11-19T00:07:38;7.85;;;6.30;;
63218;SDS011;49320;52.512;13.448;2023-11-19T00:10:10;8.52;;;6.35;;
63218;SDS011;49320;52.512;13.448;2023-11-19T00:12:46;7.28;;;5.97;;
63218;SDS011;49320;52.512;13.448;2023-11-19T00:15:15;6.65;;;5.38;;
63218;SDS011;49320;52.512;13.448;2023-11-19T00:17:45;6.55;;;5.85;;
63218;SDS011;49320;52.512;13.448;2023-11-19T00:20:15;6.85;;;5.60;;
63218;SDS011;49320;52.512;13.448;2023-11-19T00:22:48;6.65;;;5.53;;
63218;SDS011;49320;52.512;13.448;2023-11-19T00:25:18;8.45;;;5.88;;
63218;SDS011;49320;52.512;13.448;2023-11-19T00:27:48;7.82;;;6.07;;
63218;SDS011;49320;52.512;13.448;2023-11-19T00:30:15;7.22;;;5.90;;
63218;SDS011;49320;52.512;13.448;2023-11-19T00:32:42;6.53;;;5.68;;
63218;SDS011;49320;52.512;13.448;2023-11-19T00:35:09;6.10;;;5.47;;
63218;SDS011;49320;52.512;13.448;2023-11-19T00:37:36;6.90;;;5.68;;
63218;SDS011;49320;52.512;13.448;2023-11-19T00:40:04;6.97;;;5.57;;
63218;SDS011;49320;52.512;13.448;2023-11-19T00:42:32;8.25;;;5.72;;
63218;SDS011;49320;52.512;13.448;2023-11-19T00:44:59;6.43;;;5.40;;
63218;SDS011;49320;52.512;13.448;2023-11-19T00:47:27;6.85;;;5.75;;
63218;SDS011;49320;52.512;13.448;2023-11-19T00:49:55;6.65;;;6.00;;
63218;SDS011;49320;52.512;13.448;2023-11-19T00:52:22;6.15;;;5.10;;
63218;SDS011;49320;52.512;13.448;2023-11-19T00:54:48;7.13;;;5.60;;
63218;SDS011;49320;52.512;13.448;2023-11-19T00:57:15;5.85;;;5.25;;
63218;SDS011;49320;52.512;13.448;2023-11-19T00:59:42;5.88;;;5.13;;
63218;SDS011;49320;52.512;13.448;2023-11-19T01:02:10;6.95;;;5.50;;
63218;SDS011;49320;52.512;13.448;2023-11-19T01:04:37;6.30;;;4.63;;
63218;SDS011;49320;52.512;13.448;2023-11-19T01:07:04;6.15;;;5.28;;
63218;SDS011;49320;52.512;13.448;2023-11-19T01:09:41;7.53;;;5.70;;
63218;SDS011;49320;52.512;13.448;2023-11-19T01:12:09;6.55;;;5.18;;
63218;SDS011;49320;52.512;13.448;2023-11-19T01:14:37;5.65;;;4.95;;
63218;SDS011;49320;52.512;13.448;2023-11-19T01:17:04;8.60;;;6.10;;
63218;SDS011;49320;52.512;13.448;2023-11-19T01:19:32;6.22;;;5.00;;
63218;SDS011;49320;52.512;13.448;2023-11-19T01:21:59;6.38;;;5.40;;
63218;SDS011;49320;52.512;13.448;2023-11-19T01:24:25;7.45;;;5.55;;
63218;SDS011;49320;52.512;13.448;2023-11-19T01:26:54;6.07;;;5.10;;
63218;SDS011;49320;52.512;13.448;2023-11-19T01:29:21;5.82;;;5.22;;
63218;SDS011;49320;52.512;13.448;2023-11-19T01:31:48;9.18;;;5.63;;
63218;SDS011;49320;52.512;13.448;2023-11-19T01:34:17;6.95;;;5.05;;
63218;SDS011;49320;52.512;13.448;2023-11-19T01:36:44;5.22;;;4.60;;
63218;SDS011;49320;52.512;13.448;2023-11-19T01:39:13;5.72;;;4.88;;
63218;SDS011;49320;52.512;13.448;2023-11-19T01:41:42;6.28;;;5.07;;
63218;SDS011;49320;52.512;13.448;2023-11-19T01:44:09;5.82;;;4.68;;
63218;SDS011;49320;52.512;13.448;2023-11-19T01:46:38;5.70;;;4.90;;
63218;SDS011;49320;52.512;13.448;2023-11-19T01:49:09;6.43;;;5.38;;
63218;SDS011;49320;52.512;13.448;2023-11-19T01:51:38;6.57;;;4.80;;
63218;SDS011;49320;52.512;13.448;2023-11-19T01:54:06;7.25;;;5.47;;
63218;SDS011;49320;52.512;13.448;2023-11-19T01:56:34;5.05;;;4.55;;
63218;SDS011;49320;52.512;13.448;2023-11-19T01:59:07;7.90;;;5.13;;
63218;SDS011;49320;52.512;13.448;2023-11-19T02:01:37;5.60;;;5.00;;
63218;SDS011;49320;52.512;13.448;2023-11-19T02:04:07;6.32;;;5.32;;
63218;SDS011;49320;52.512;13.448;2023-11-19T02:06:36;4.90;;;4.40;;
63218;SDS011;49320;52.512;13.448;2023-11-19T02:09:07;7.80;;;4.93;;
63218;SDS011;49320;52.512;13.448;2023-11-19T02:11:34;5.93;;;4.85;;
63218;SDS011;49320;52.512;13.448;2023-11-19T02:14:01;5.07;;;4.25;;
63218;SDS011;49320;52.512;13.448;2023-11-19T02:16:30;6.85;;;4.53;;
63218;SDS011;49320;52.512;13.448;2023-11-19T02:18:57;5.28;;;4.50;;
63218;SDS011;49320;52.512;13.448;2023-11-19T02:21:24;6.82;;;5.00;;
63218;SDS011;49320;52.512;13.448;2023-11-19T02:23:51;5.53;;;4.53;;
63218;SDS011;49320;52.512;13.448;2023-11-19T02:26:33;5.75;;;4.90;;
63218;SDS011;49320;52.512;13.448;2023-11-19T02:29:11;5.00;;;4.32;;
63218;SDS011;49320;52.512;13.448;2023-11-19T02:31:39;4.85;;;4.38;;
63218;SDS011;49320;52.512;13.448;2023-11-19T02:34:06;5.03;;;4.10;;
63218;SDS011;49320;52.512;13.448;2023-11-19T02:36:33;5.00;;;4.50;;
63218;SDS011;49320;52.512;13.448;2023-11-19T02:39:00;4.68;;;4.18;;
63218;SDS011;49320;52.512;13.448;2023-11-19T02:41:28;6.05;;;4.70;;
63218;SDS011;49320;52.512;13.448;2023-11-19T02:43:55;5.47;;;4.43;;
63218;SDS011;49320;52.512;13.448;2023-11-19T02:46:22;4.68;;;4.18;;
63218;SDS011;49320;52.512;13.448;2023-11-19T02:48:49;4.72;;;4.22;;
63218;SDS011;49320;52.512;13.448;2023-11-19T02:51:15;5.05;;;4.05;;
63218;SDS011;49320;52.512;13.448;2023-11-19T02:53:44;4.47;;;3.63;;
63218;SDS011;49320;52.512;13.448;2023-11-19T02:56:14;4.28;;;3.75;;
63218;SDS011;49320;52.512;13.448;2023-11-19T02:58:46;5.38;;;4.40;;
63218;SDS011;49320;52.512;13.448;2023-11-19T03:01:21;4.32;;;3.92;;
63218;SDS011;49320;52.512;13.448;2023-11-19T03:03:56;5.07;;;3.55;;
63218;SDS011;49320;52.512;13.448;2023-11-19T03:06:24;4.85;;;3.83;;
63218;SDS011;49320;52.512;13.448;2023-11-19T03:08:52;5.38;;;3.90;;
63218;SDS011;49320;52.512;13.448;2023-11-19T03:11:19;4.35;;;3.55;;
63218;SDS011;49320;52.512;13.448;2023-11-19T03:13:46;4.20;;;3.42;;
63218;SDS011;49320;52.512;13.448;2023-11-19T03:16:13;4.20;;;3.80;;
63218;SDS011;49320;52.512;13.448;2023-11-19T03:18:40;4.93;;;3.80;;
63218;SDS011;49320;52.512;13.448;2023-11-19T03:21:07;4.00;;;3.13;;
63218;SDS011;49320;52.512;13.448;2023-11-19T03:23:34;3.88;;;3.00;;
63218;SDS011;49320;52.512;13.448;2023-11-19T03:26:03;4.65;;;3.10;;
63218;SDS011;49320;52.512;13.448;2023-11-19T03:28:32;3.95;;;3.50;;
63218;SDS011;49320;52.512;13.448;2023-11-19T03:30:59;4.13;;;3.28;;
63218;SDS011;49320;52.512;13.448;2023-11-19T03:33:26;4.63;;;3.42;;
63218;SDS011;49320;52.512;13.448;2023-11-19T03:35:54;3.83;;;3.42;;
63218;SDS011;49320;52.512;13.448;2023-11-19T03:38:23;4.68;;;3.00;;
63218;SDS011;49320;52.512;13.448;2023-11-19T03:40:51;3.78;;;3.00;;
63218;SDS011;49320;52.512;13.448;2023-11-19T03:43:18;3.72;;;3.00;;
63218;SDS011;49320;52.512;13.448;2023-11-19T03:45:47;4.03;;;3.45;;
63218;SDS011;49320;52.512;13.448;2023-11-19T03:48:14;4.32;;;3.40;;
63218;SDS011;49320;52.512;13.448;2023-11-19T03:50:43;4.57;;;3.33;;
63218;SDS011;49320;52.512;13.448;2023-11-19T03:53:11;4.20;;;3.45;;
63218;SDS011;49320;52.512;13.448;2023-11-19T03:55:39;3.90;;;3.22;;
63218;SDS011;49320;52.512;13.448;2023-11-19T03:58:06;4.38;;;3.17;;
63218;SDS011;49320;52.512;13.448;2023-11-19T04:00:33;4.65;;;3.30;;
63218;SDS011;49320;52.512;13.448;2023-11-19T04:03:00;5.20;;;3.40;;
63218;SDS011;49320;52.512;13.448;2023-11-19T04:05:27;4.25;;;3.40;;
63218;SDS011;49320;52.512;13.448;2023-11-19T04:07:54;4.30;;;3.90;;
63218;SDS011;49320;52.512;13.448;2023-11-19T04:10:21;4.80;;;4.00;;
63218;SDS011;49320;52.512;13.448;2023-11-19T04:12:49;4.07;;;3.65;;
63218;SDS011;49320;52.512;13.448;2023-11-19T04:15:16;4.75;;;3.72;;
63218;SDS011;49320;52.512;13.448;2023-11-19T04:17:43;3.83;;;3.42;;
63218;SDS011;49320;52.512;13.448;2023-11-19T04:20:10;4.38;;;3.42;;
63218;SDS011;49320;52.512;13.448;2023-11-19T04:22:40;5.30;;;3.90;;
63218;SDS011;49320;52.512;13.448;2023-11-19T04:25:07;5.85;;;4.03;;
63218;SDS011;49320;52.512;13.448;2023-11-19T04:27:34;5.18;;;3.95;;
63218;SDS011;49320;52.512;13.448;2023-11-19T04:30:01;4.40;;;3.97;;
63218;SDS011;49320;52.512;13.448;2023-11-19T04:32:30;6.10;;;4.10;;
63218;SDS011;49320;52.512;13.448;2023-11-19T04:34:57;5.13;;;3.95;;
63218;SDS011;49320;52.512;13.448;2023-11-19T04:37:24;5.13;;;4.32;;
63218;SDS011;49320;52.512;13.448;2023-11-19T04:39:51;4.20;;;3.38;;
63218;SDS011;49320;52.512;13.448;2023-11-19T04:42:18;4.93;;;3.80;;
63218;SDS011;49320;52.512;13.448;2023-11-19T04:44:44;5.57;;;4.22;;
63218;SDS011;49320;52.512;13.448;2023-11-19T04:47:11;4.43;;;3.58;;
63218;SDS011;49320;52.512;13.448;2023-11-19T04:49:41;4.03;;;3.60;;
63218;SDS011;49320;52.512;13.448;2023-11-19T04:52:11;4.65;;;3.88;;
63218;SDS011;49320;52.512;13.448;2023-11-19T04:54:42;5.50;;;4.40;;
63218;SDS011;49320;52.512;13.448;2023-11-19T04:57:10;4.45;;;4.05;;
63218;SDS011;49320;52.512;13.448;2023-11-19T04:59:37;5.00;;;3.80;;
63218;SDS011;49320;52.512;13.448;2023-11-19T05:02:04;4.90;;;4.13;;
63218;SDS011;49320;52.512;13.448;2023-11-19T05:04:32;6.55;;;4.18;;
63218;SDS011;49320;52.512;13.448;2023-11-19T05:06:59;4.20;;;3.80;;
63218;SDS011;49320;52.512;13.448;2023-11-19T05:09:26;5.50;;;4.45;;
63218;SDS011;49320;52.512;13.448;2023-11-19T05:11:53;4.60;;;3.95;;
63218;SDS011;49320;52.512;13.448;2023-11-19T05:14:20;5.47;;;4.20;;
63218;SDS011;49320;52.512;13.448;2023-11-19T05:16:47;4.93;;;4.28;;
63218;SDS011;49320;52.512;13.448;2023-11-19T05:19:15;5.40;;;4.00;;
63218;SDS011;49320;52.512;13.448;2023-11-19T05:21:42;5.45;;;3.92;;
63218;SDS011;49320;52.512;13.448;2023-11-19T05:24:10;5.97;;;4.20;;
63218;SDS011;49320;52.512;13.448;2023-11-19T05:26:38;5.28;;;3.72;;
63218;SDS011;49320;52.512;13.448;2023-11-19T05:29:05;4.60;;;3.60;;
63218;SDS011;49320;52.512;13.448;2023-11-19T05:31:32;4.43;;;3.83;;
63218;SDS011;49320;52.512;13.448;2023-11-19T05:34:02;5.05;;;3.75;;
63218;SDS011;49320;52.512;13.448;2023-11-19T05:36:30;4.90;;;3.95;;
63218;SDS011;49320;52.512;13.448;2023-11-19T05:38:57;4.82;;;3.70;;
63218;SDS011;49320;52.512;13.448;2023-11-19T05:41:24;4.78;;;3.58;;
63218;SDS011;49320;52.512;13.448;2023-11-19T05:43:51;3.63;;;3.28;;
63218;SDS011;49320;52.512;13.448;2023-11-19T05:46:18;3.85;;;3.08;;
63218;SDS011;49320;52.512;13.448;2023-11-19T05:48:46;4.10;;;3.70;;
63218;SDS011;49320;52.512;13.448;2023-11-19T05:51:14;3.63;;;3.08;;
63218;SDS011;49320;52.512;13.448;2023-11-19T05:53:42;4.30;;;3.90;;
63218;SDS011;49320;52.512;13.448;2023-11-19T05:56:09;6.47;;;3.83;;
63218;SDS011;49320;52.512;13.448;2023-11-19T05:58:36;3.88;;;3.40;;
63218;SDS011;49320;52.512;13.448;2023-11-19T06:01:04;3.55;;;2.97;;
63218;SDS011;49320;52.512;13.448;2023-11-19T06:03:34;5.28;;;3.33;;
63218;SDS011;49320;52.512;13.448;2023-11-19T06:06:01;4.25;;;3.15;;
63218;SDS011;49320;52.512;13.448;2023-11-19T06:08:28;4.18;;;3.10;;
63218;SDS011;49320;52.512;13.448;2023-11-19T06:10:56;3.95;;;3.30;;
63218;SDS011;49320;52.512;13.448;2023-11-19T06:13:24;3.83;;;3.05;;
63218;SDS011;49320;52.512;13.448;2023-11-19T06:15:52;3.95;;;3.20;;
63218;SDS011;49320;52.512;13.448;2023-11-19T06:18:18;3.20;;;2.75;;
63218;SDS011;49320;52.512;13.448;2023-11-19T06:20:46;3.47;;;3.10;;
63218;SDS011;49320;52.512;13.448;2023-11-19T06:23:13;3.58;;;3.25;;
63218;SDS011;49320;52.512;13.448;2023-11-19T06:25:40;4.07;;;3.20;;
63218;SDS011;49320;52.512;13.448;2023-11-19T06:28:07;2.85;;;2.65;;
63218;SDS011;49320;52.512;13.448;2023-11-19T06:30:34;3.95;;;2.85;;
63218;SDS011;49320;52.512;13.448;2023-11-19T06:33:02;4.15;;;2.95;;
63218;SDS011;49320;52.512;13.448;2023-11-19T06:35:30;5.63;;;2.67;;
63218;SDS011;49320;52.512;13.448;2023-11-19T06:38:02;3.97;;;2.97;;
63218;SDS011;49320;52.512;13.448;2023-11-19T06:40:33;3.78;;;3.40;;
63218;SDS011;49320;52.512;13.448;2023-11-19T06:43:04;3.22;;;2.92;;
63218;SDS011;49320;52.512;13.448;2023-11-19T06:45:31;3.40;;;2.63;;
63218;SDS011;49320;52.512;13.448;2023-11-19T06:48:00;4.00;;;2.70;;
63218;SDS011;49320;52.512;13.448;2023-11-19T06:50:30;2.80;;;2.60;;
63218;SDS011;49320;52.512;13.448;2023-11-19T06:52:57;2.80;;;2.40;;
63218;SDS011;49320;52.512;13.448;2023-11-19T06:55:24;3.13;;;2.60;;
63218;SDS011;49320;52.512;13.448;2023-11-19T06:57:52;2.72;;;2.13;;
63218;SDS011;49320;52.512;13.448;2023-11-19T07:00:19;2.67;;;2.00;;
63218;SDS011;49320;52.512;13.448;2023-11-19T07:02:46;2.70;;;2.33;;
63218;SDS011;49320;52.512;13.448;2023-11-19T07:05:13;2.63;;;2.10;;
63218;SDS011;49320;52.512;13.448;2023-11-19T07:07:40;3.25;;;2.47;;
63218;SDS011;49320;52.512;13.448;2023-11-19T07:10:07;3.42;;;2.58;;
63218;SDS011;49320;52.512;13.448;2023-11-19T07:12:36;3.65;;;2.30;;
63218;SDS011;49320;52.512;13.448;2023-11-19T07:15:03;2.60;;;2.25;;
63218;SDS011;49320;52.512;13.448;2023-11-19T07:17:31;3.15;;;2.35;;
63218;SDS011;49320;52.512;13.448;2023-11-19T07:19:58;3.53;;;2.20;;
63218;SDS011;49320;52.512;13.448;2023-11-19T07:22:26;2.95;;;2.42;;
63218;SDS011;49320;52.512;13.448;2023-11-19T07:24:55;3.40;;;2.60;;
63218;SDS011;49320;52.512;13.448;2023-11-19T07:27:22;3.17;;;2.53;;
63218;SDS011;49320;52.512;13.448;2023-11-19T07:29:51;2.90;;;2.50;;
63218;SDS011;49320;52.512;13.448;2023-11-19T07:32:18;2.90;;;2.55;;
63218;SDS011;49320;52.512;13.448;2023-11-19T07:34:45;3.08;;;2.60;;
63218;SDS011;49320;52.512;13.448;2023-11-19T07:37:12;2.50;;;2.30;;
63218;SDS011;49320;52.512;13.448;2023-11-19T07:39:39;3.30;;;2.35;;
63218;SDS011;49320;52.512;13.448;2023-11-19T07:42:07;2.85;;;2.50;;
63218;SDS011;49320;52.512;13.448;2023-11-19T07:44:35;2.53;;;2.17;;
63218;SDS011;49320;52.512;13.448;2023-11-19T07:47:03;2.72;;;2.35;;
63218;SDS011;49320;52.512;13.448;2023-11-19T07:49:30;3.25;;;2.42;;
63218;SDS011;49320;52.512;13.448;2023-11-19T07:51:57;2.08;;;1.88;;
63218;SDS011;49320;52.512;13.448;2023-11-19T07:54:24;2.65;;;2.13;;
63218;SDS011;49320;52.512;13.448;2023-11-19T07:56:51;2.38;;;2.00;;
63218;SDS011;49320;52.512;13.448;2023-11-19T07:59:18;2.83;;;2.20;;
63218;SDS011;49320;52.512;13.448;2023-11-19T08:01:45;3.42;;;2.47;;
63218;SDS011;49320;52.512;13.448;2023-11-19T08:04:12;3.78;;;2.60;;
63218;SDS011;49320;52.512;13.448;2023-11-19T08:06:40;4.15;;;3.33;;
63218;SDS011;49320;52.512;13.448;2023-11-19T08:09:06;4.10;;;2.90;;
63218;SDS011;49320;52.512;13.448;2023-11-19T08:11:40;3.75;;;2.83;;
63218;SDS011;49320;52.512;13.448;2023-11-19T08:14:08;4.45;;;2.83;;
63218;SDS011;49320;52.512;13.448;2023-11-19T08:16:35;3.85;;;2.80;;
63218;SDS011;49320;52.512;13.448;2023-11-19T08:19:03;3.45;;;2.42;;
63218;SDS011;49320;52.512;13.448;2023-11-19T08:21:30;3.25;;;2.50;;
63218;SDS011;49320;52.512;13.448;2023-11-19T08:23:57;3.40;;;2.45;;
63218;SDS011;49320;52.512;13.448;2023-11-19T08:26:24;3.00;;;2.58;;
63218;SDS011;49320;52.512;13.448;2023-11-19T08:28:51;4.60;;;2.97;;
63218;SDS011;49320;52.512;13.448;2023-11-19T08:31:18;2.97;;;2.50;;
63218;SDS011;49320;52.512;13.448;2023-11-19T08:33:45;3.33;;;2.60;;
63218;SDS011;49320;52.512;13.448;2023-11-19T08:36:15;2.85;;;2.20;;
63218;SDS011;49320;52.512;13.448;2023-11-19T08:38:43;3.17;;;2.53;;
63218;SDS011;49320;52.512;13.448;2023-11-19T08:41:10;4.65;;;3.55;;
63218;SDS011;49320;52.512;13.448;2023-11-19T08:43:37;4.90;;;3.22;;
63218;SDS011;49320;52.512;13.448;2023-11-19T08:46:06;3.28;;;2.67;;
63218;SDS011;49320;52.512;13.448;2023-11-19T08:48:37;3.58;;;2.70;;
63218;SDS011;49320;52.512;13.448;2023-11-19T08:51:05;2.75;;;2.53;;
63218;SDS011;49320;52.512;13.448;2023-11-19T08:53:32;4.25;;;2.65;;
63218;SDS011;49320;52.512;13.448;2023-11-19T08:55:59;2.55;;;2.25;;
63218;SDS011;49320;52.512;13.448;2023-11-19T08:58:26;5.55;;;4.03;;
63218;SDS011;49320;52.512;13.448;2023-11-19T09:00:53;4.88;;;3.53;;
63218;SDS011;49320;52.512;13.448;2023-11-19T09:03:20;3.83;;;3.20;;
63218;SDS011;49320;52.512;13.448;2023-11-19T09:05:48;3.05;;;2.70;;
63218;SDS011;49320;52.512;13.448;2023-11-19T09:08:14;2.95;;;2.50;;
63218;SDS011;49320;52.512;13.448;2023-11-19T09:10:41;2.90;;;2.60;;
63218;SDS011;49320;52.512;13.448;2023-11-19T09:13:08;5.47;;;3.28;;
63218;SDS011;49320;52.512;13.448;2023-11-19T09:15:35;3.60;;;2.75;;
63218;SDS011;49320;52.512;13.448;2023-11-19T09:18:02;4.70;;;2.90;;
63218;SDS011;49320;52.512;13.448;2023-11-19T09:20:29;3.25;;;2.63;;
63218;SDS011;49320;52.512;13.448;2023-11-19T09:23:07;5.20;;;4.63;;
63218;SDS011;49320;52.512;13.448;2023-11-19T09:25:35;4.88;;;3.63;;
63218;SDS011;49320;52.512;13.448;2023-11-19T09:28:05;4.70;;;3.42;;
63218;SDS011;49320;52.512;13.448;2023-11-19T09:30:32;5.50;;;3.25;;
63218;SDS011;49320;52.512;13.448;2023-11-19T09:33:00;5.30;;;3.00;;
63218;SDS011;49320;52.512;13.448;2023-11-19T09:35:27;3.63;;;2.92;;
63218;SDS011;49320;52.512;13.448;2023-11-19T09:37:54;5.18;;;3.63;;
63218;SDS011;49320;52.512;13.448;2023-11-19T09:40:21;3.55;;;3.10;;
63218;SDS011;49320;52.512;13.448;2023-11-19T09:42:47;4.75;;;3.17;;
63218;SDS011;49320;52.512;13.448;2023-11-19T09:45:15;5.38;;;3.08;;
63218;SDS011;49320;52.512;13.448;2023-11-19T09:47:45;3.55;;;2.88;;
63218;SDS011;49320;52.512;13.448;2023-11-19T09:50:16;3.58;;;2.60;;
63218;SDS011;49320;52.512;13.448;2023-11-19T09:52:46;2.97;;;2.35;;
63218;SDS011;49320;52.512;13.448;2023-11-19T09:55:13;3.33;;;2.28;;
63218;SDS011;49320;52.512;13.448;2023-11-19T09:57:41;3.35;;;2.38;;
63218;SDS011;49320;52.512;13.448;2023-11-19T10:00:10;3.72;;;2.53;;
63218;SDS011;49320;52.512;13.448;2023-11-19T10:02:41;4.25;;;2.33;;
63218;SDS011;49320;52.512;13.448;2023-11-19T10:05:13;3.03;;;2.10;;
63218;SDS011;49320;52.512;13.448;2023-11-19T10:07:42;2.72;;;2.20;;
63218;SDS011;49320;52.512;13.448;2023-11-19T10:10:10;3.58;;;2.30;;
63218;SDS011;49320;52.512;13.448;2023-11-19T10:12:47;2.85;;;2.00;;
63218;SDS011;49320;52.512;13.448;2023-11-19T10:15:20;4.35;;;2.13;;
63218;SDS011;49320;52.512;13.448;2023-11-19T10:17:56;2.40;;;1.90;;
63218;SDS011;49320;52.512;13.448;2023-11-19T10:20:24;2.22;;;1.63;;
63218;SDS011;49320;52.512;13.448;2023-11-19T10:22:54;2.60;;;2.22;;
63218;SDS011;49320;52.512;13.448;2023-11-19T10:25:22;2.55;;;1.58;;
63218;SDS011;49320;52.512;13.448;2023-11-19T10:27:55;2.75;;;1.80;;
63218;SDS011;49320;52.512;13.448;2023-11-19T10:30:24;2.78;;;1.60;;
63218;SDS011;49320;52.512;13.448;2023-11-19T10:33:05;3.55;;;1.60;;
63218;SDS011;49320;52.512;13.448;2023-11-19T10:35:37;3.63;;;1.77;;
63218;SDS011;49320;52.512;13.448;2023-11-19T10:38:28;3.22;;;1.90;;
63218;SDS011;49320;52.512;13.448;2023-11-19T10:40:56;3.97;;;1.90;;
63218;SDS011;49320;52.512;13.448;2023-11-19T10:43:23;3.67;;;1.83;;
63218;SDS011;49320;52.512;13.448;2023-11-19T10:45:51;3.03;;;1.33;;
63218;SDS011;49320;52.512;13.448;2023-11-19T10:48:18;3.83;;;1.55;;
63218;SDS011;49320;52.512;13.448;2023-11-19T10:50:46;2.45;;;1.77;;
63218;SDS011;49320;52.512;13.448;2023-11-19T10:53:21;3.42;;;1.60;;
63218;SDS011;49320;52.512;13.448;2023-11-19T10:55:52;2.13;;;1.52;;
63218;SDS011;49320;52.512;13.448;2023-11-19T10:58:24;5.75;;;2.15;;
63218;SDS011;49320;52.512;13.448;2023-11-19T11:00:55;4.00;;;1.90;;
63218;SDS011;49320;52.512;13.448;2023-11-19T11:03:35;5.40;;;1.50;;
63218;SDS011;49320;52.512;13.448;2023-11-19T11:06:07;3.67;;;1.67;;
63218;SDS011;49320;52.512;13.448;2023-11-19T11:08:36;5.50;;;2.03;;
63218;SDS011;49320;52.512;13.448;2023-11-19T11:11:05;5.00;;;1.90;;
63218;SDS011;49320;52.512;13.448;2023-11-19T11:13:33;3.58;;;1.88;;
63218;SDS011;49320;52.512;13.448;2023-11-19T11:16:03;3.60;;;1.65;;
63218;SDS011;49320;52.512;13.448;2023-11-19T11:18:34;6.60;;;2.63;;
63218;SDS011;49320;52.512;13.448;2023-11-19T11:23:47;5.72;;;1.98;;
63218;SDS011;49320;52.512;13.448;2023-11-19T11:26:45;7.13;;;2.58;;
63218;SDS011;49320;52.512;13.448;2023-11-19T11:29:46;5.05;;;1.70;;
63218;SDS011;49320;52.512;13.448;2023-11-19T11:32:39;4.25;;;1.85;;
63218;SDS011;49320;52.512;13.448;2023-11-19T11:38:17;4.90;;;2.17;;
63218;SDS011;49320;52.512;13.448;2023-11-19T11:43:56;4.93;;;1.70;;
63218;SDS011;49320;52.512;13.448;2023-11-19T11:49:03;6.05;;;2.00;;
63218;SDS011;49320;52.512;13.448;2023-11-19T11:54:10;6.75;;;2.80;;
63218;SDS011;49320;52.512;13.448;2023-11-19T12:02:09;6.25;;;2.42;;
63218;SDS011;49320;52.512;13.448;2023-11-19T12:04:39;7.07;;;2.70;;
63218;SDS011;49320;52.512;13.448;2023-11-19T12:07:17;7.78;;;2.50;;
63218;SDS011;49320;52.512;13.448;2023-11-19T12:09:53;8.15;;;2.90;;
63218;SDS011;49320;52.512;13.448;2023-11-19T12:12:34;8.60;;;3.17;;
63218;SDS011;49320;52.512;13.448;2023-11-19T12:15:05;8.75;;;3.17;;
63218;SDS011;49320;52.512;13.448;2023-11-19T12:17:41;4.78;;;1.90;;
63218;SDS011;49320;52.512;13.448;2023-11-19T12:20:12;10.65;;;3.20;;
63218;SDS011;49320;52.512;13.448;2023-11-19T12:22:39;8.00;;;3.05;;
63218;SDS011;49320;52.512;13.448;2023-11-19T12:25:09;8.68;;;2.88;;
63218;SDS011;49320;52.512;13.448;2023-11-19T12:27:41;10.05;;;2.60;;
63218;SDS011;49320;52.512;13.448;2023-11-19T12:30:11;7.53;;;2.23;;
63218;SDS011;49320;52.512;13.448;2023-11-19T12:32:39;10.20;;;3.10;;
63218;SDS011;49320;52.512;13.448;2023-11-19T12:35:11;7.82;;;2.78;;
63218;SDS011;49320;52.512;13.448;2023-11-19T12:37:42;7.05;;;2.40;;
63218;SDS011;49320;52.512;13.448;2023-11-19T12:40:18;6.35;;;2.55;;
63218;SDS011;49320;52.512;13.448;2023-11-19T12:42:48;6.15;;;2.35;;
63218;SDS011;49320;52.512;13.448;2023-11-19T12:45:17;5.28;;;2.20;;
63218;SDS011;49320;52.512;13.448;2023-11-19T12:47:45;10.82;;;3.30;;
63218;SDS011;49320;52.512;13.448;2023-11-19T12:50:16;8.63;;;3.17;;
63218;SDS011;49320;52.512;13.448;2023-11-19T12:52:57;6.30;;;2.40;;
63218;SDS011;49320;52.512;13.448;2023-11-19T12:55:25;8.93;;;2.90;;
63218;SDS011;49320;52.512;13.448;2023-11-19T12:57:56;10.93;;;2.70;;
63218;SDS011;49320;52.512;13.448;2023-11-19T13:00:25;7.72;;;2.90;;
63218;SDS011;49320;52.512;13.448;2023-11-19T13:02:54;12.70;;;3.67;;
63218;SDS011;49320;52.512;13.448;2023-11-19T13:05:30;10.38;;;3.28;;
63218;SDS011;49320;52.512;13.448;2023-11-19T13:08:00;9.25;;;2.95;;
63218;SDS011;49320;52.512;13.448;2023-11-19T13:10:27;7.20;;;3.15;;
63218;SDS011;49320;52.512;13.448;2023-11-19T13:17:55;9.02;;;2.67;;
63218;SDS011;49320;52.512;13.448;2023-11-19T13:20:22;10.45;;;2.97;;
63218;SDS011;49320;52.512;13.448;2023-11-19T13:22:56;9.73;;;3.20;;
63218;SDS011;49320;52.512;13.448;2023-11-19T13:25:30;11.32;;;3.60;;
63218;SDS011;49320;52.512;13.448;2023-11-19T13:28:00;8.30;;;3.30;;
63218;SDS011;49320;52.512;13.448;2023-11-19T13:30:28;8.23;;;3.25;;
63218;SDS011;49320;52.512;13.448;2023-11-19T13:32:58;12.73;;;3.42;;
63218;SDS011;49320;52.512;13.448;2023-11-19T13:35:27;9.15;;;3.13;;
63218;SDS011;49320;52.512;13.448;2023-11-19T13:37:54;7.28;;;2.58;;
63218;SDS011;49320;52.512;13.448;2023-11-19T13:40:21;10.95;;;3.55;;
63218;SDS011;49320;52.512;13.448;2023-11-19T13:42:50;8.85;;;3.15;;
63218;SDS011;49320;52.512;13.448;2023-11-19T13:45:17;7.65;;;3.20;;
63218;SDS011;49320;52.512;13.448;2023-11-19T13:47:45;9.82;;;3.00;;
63218;SDS011;49320;52.512;13.448;2023-11-19T13:50:13;9.13;;;3.00;;
63218;SDS011;49320;52.512;13.448;2023-11-19T13:52:43;9.20;;;3.08;;
63218;SDS011;49320;52.512;13.448;2023-11-19T13:55:12;8.18;;;2.80;;
63218;SDS011;49320;52.512;13.448;2023-11-19T13:57:40;8.30;;;2.70;;
63218;SDS011;49320;52.512;13.448;2023-11-19T14:00:09;10.15;;;3.00;;
63218;SDS011;49320;52.512;13.448;2023-11-19T14:02:42;8.25;;;2.83;;
63218;SDS011;49320;52.512;13.448;2023-11-19T14:05:10;7.90;;;3.22;;
63218;SDS011;49320;52.512;13.448;2023-11-19T14:07:37;11.55;;;3.35;;
63218;SDS011;49320;52.512;13.448;2023-11-19T14:10:08;9.25;;;3.35;;
63218;SDS011;49320;52.512;13.448;2023-11-19T14:12:37;10.27;;;2.95;;
63218;SDS011;49320;52.512;13.448;2023-11-19T14:15:08;11.02;;;3.55;;
63218;SDS011;49320;52.512;13.448;2023-11-19T14:17:36;13.40;;;3.90;;
63218;SDS011;49320;52.512;13.448;2023-11-19T14:20:03;10.30;;;4.00;;
63218;SDS011;49320;52.512;13.448;2023-11-19T14:22:39;11.00;;;3.25;;
63218;SDS011;49320;52.512;13.448;2023-11-19T14:25:07;11.18;;;3.67;;
63218;SDS011;49320;52.512;13.448;2023-11-19T14:27:40;11.02;;;3.58;;
63218;SDS011;49320;52.512;13.448;2023-11-19T14:30:09;9.40;;;3.47;;
63218;SDS011;49320;52.512;13.448;2023-11-19T14:32:40;9.23;;;3.30;;
63218;SDS011;49320;52.512;13.448;2023-11-19T14:35:10;9.35;;;2.88;;
63218;SDS011;49320;52.512;13.448;2023-11-19T14:37:37;10.57;;;3.55;;
63218;SDS011;49320;52.512;13.448;2023-11-19T14:40:04;9.70;;;3.15;;
63218;SDS011;49320;52.512;13.448;2023-11-19T14:42:35;11.80;;;4.07;;
63218;SDS011;49320;52.512;13.448;2023-11-19T14:45:01;10.95;;;3.45;;
63218;SDS011;49320;52.512;13.448;2023-11-19T14:47:28;10.15;;;3.85;;
63218;SDS011;49320;52.512;13.448;2023-11-19T14:49:56;8.60;;;2.80;;
63218;SDS011;49320;52.512;13.448;2023-11-19T14:52:23;8.27;;;2.97;;
63218;SDS011;49320;52.512;13.448;2023-11-19T14:54:50;12.05;;;4.15;;
63218;SDS011;49320;52.512;13.448;2023-11-19T14:57:20;8.98;;;3.38;;
63218;SDS011;49320;52.512;13.448;2023-11-19T14:59:46;10.40;;;3.33;;
63218;SDS011;49320;52.512;13.448;2023-11-19T15:02:13;10.73;;;3.55;;
63218;SDS011;49320;52.512;13.448;2023-11-19T15:04:40;10.88;;;3.30;;
63218;SDS011;49320;52.512;13.448;2023-11-19T15:07:10;10.00;;;2.92;;